createdAt,value
2019-01-30T00:01:51.740Z,2.80
2019-01-30T00:06:50.614Z,2.40
2019-01-30T00:09:19.932Z,2.30
2019-01-30T00:11:49.843Z,2.50
2019-01-30T00:24:17.118Z,2.40
2019-01-30T00:26:46.999Z,2.60
2019-01-30T00:29:16.899Z,2.50
2019-01-30T00:34:16.474Z,2.20
2019-01-30T00:36:45.891Z,2.30
2019-01-30T00:39:15.925Z,2.50
2019-01-30T00:41:45.236Z,2.40
2019-01-30T00:44:15.211Z,2.40
2019-01-30T00:46:45.085Z,2.10
2019-01-30T00:49:15.144Z,2.20
2019-01-30T00:51:44.747Z,2.70
2019-01-30T00:56:43.610Z,2.20
2019-01-30T01:01:42.006Z,2.80
2019-01-30T01:09:10.568Z,2.60
2019-01-30T01:14:09.558Z,2.20
2019-01-30T01:16:39.951Z,2.40
2019-01-30T01:21:39.576Z,2.60
2019-01-30T01:26:51.182Z,2.20
2019-01-30T01:29:20.493Z,2.40
2019-01-30T01:31:50.396Z,2.30
2019-01-30T01:34:19.827Z,2.30
2019-01-30T01:36:49.136Z,2.30
2019-01-30T01:39:19.143Z,2.40
2019-01-30T01:41:49.066Z,2.30
2019-01-30T01:44:19.103Z,2.30
2019-01-30T01:46:48.751Z,2.30
2019-01-30T01:49:18.064Z,2.30
2019-01-30T01:51:47.571Z,2.30
2019-01-30T01:54:17.100Z,2.40
2019-01-30T01:56:46.374Z,2.40
2019-01-30T01:59:16.334Z,2.30
2019-01-30T02:01:45.623Z,2.20
2019-01-30T02:04:14.972Z,2.20
2019-01-30T02:06:44.419Z,2.30
2019-01-30T02:09:14.051Z,2.30
2019-01-30T02:11:43.487Z,2.20
2019-01-30T02:14:13.378Z,2.20
2019-01-30T02:16:43.811Z,2.20
2019-01-30T02:19:13.225Z,2.20
2019-01-30T02:21:42.536Z,2.20
2019-01-30T02:24:12.689Z,2.20
2019-01-30T02:26:42.717Z,2.20
2019-01-30T02:29:12.720Z,2.20
2019-01-30T02:31:42.028Z,2.10
2019-01-30T02:34:11.401Z,2.10
2019-01-30T02:36:56.394Z,2.10
2019-01-30T02:39:26.005Z,2.10
2019-01-30T02:41:55.935Z,1.90
2019-01-30T02:44:25.832Z,2.00
2019-01-30T02:46:55.706Z,2.00
2019-01-30T02:49:25.255Z,5.10
2019-01-30T02:51:54.569Z,2.10
2019-01-30T02:54:24.455Z,2.10
2019-01-30T02:56:53.904Z,2.00
2019-01-30T02:59:23.198Z,2.30
2019-01-30T03:01:54.145Z,2.00
2019-01-30T03:04:47.297Z,2.00
2019-01-30T03:07:16.627Z,2.00
2019-01-30T03:09:46.523Z,2.00
2019-01-30T03:12:15.833Z,2.00
2019-01-30T03:14:45.256Z,2.00
2019-01-30T03:17:15.656Z,2.00
2019-01-30T03:19:44.966Z,2.00
2019-01-30T03:22:14.304Z,2.00
2019-01-30T03:24:44.128Z,2.00
2019-01-30T03:27:13.555Z,2.00
2019-01-30T03:29:43.594Z,2.10
2019-01-30T03:32:13.037Z,1.90
2019-01-30T03:34:42.464Z,1.90
2019-01-30T03:37:11.794Z,2.00
2019-01-30T03:39:41.371Z,1.90
2019-01-30T03:42:10.745Z,2.00
2019-01-30T03:44:40.070Z,2.00
2019-01-30T03:47:09.520Z,1.90
2019-01-30T03:49:38.870Z,1.90
2019-01-30T03:52:08.508Z,1.90
2019-01-30T03:54:38.079Z,1.90
2019-01-30T03:57:07.709Z,1.90
2019-01-30T03:59:37.097Z,1.90
2019-01-30T04:02:06.599Z,1.80
2019-01-30T04:04:36.244Z,1.80
2019-01-30T04:07:05.838Z,1.70
2019-01-30T04:09:35.740Z,1.70
2019-01-30T04:12:05.154Z,1.70
2019-01-30T04:14:34.594Z,1.70
2019-01-30T04:17:05.319Z,1.60
2019-01-30T04:19:35.885Z,1.60
2019-01-30T04:22:05.417Z,1.70
2019-01-30T04:24:35.326Z,1.70
2019-01-30T04:27:04.832Z,1.70
2019-01-30T04:29:34.199Z,1.80
2019-01-30T04:32:03.709Z,1.80
2019-01-30T04:34:33.095Z,1.70
2019-01-30T04:37:02.583Z,1.70
2019-01-30T04:39:31.891Z,1.70
2019-01-30T04:42:01.228Z,1.70
2019-01-30T04:44:31.178Z,1.70
2019-01-30T04:47:00.491Z,1.70
2019-01-30T04:49:30.047Z,1.70
2019-01-30T04:51:59.426Z,1.70
2019-01-30T04:54:28.888Z,1.70
2019-01-30T04:56:58.985Z,1.70
2019-01-30T04:59:28.446Z,1.70
2019-01-30T05:01:57.774Z,1.70
2019-01-30T05:04:27.240Z,1.70
2019-01-30T05:06:56.536Z,1.70
2019-01-30T05:09:25.874Z,1.70
2019-01-30T05:11:57.812Z,1.60
2019-01-30T05:14:27.150Z,1.70
2019-01-30T05:16:57.263Z,1.60
2019-01-30T05:19:26.723Z,1.70
2019-01-30T05:21:57.066Z,1.70
2019-01-30T05:24:26.377Z,1.70
2019-01-30T05:26:55.715Z,1.70
2019-01-30T05:29:27.915Z,1.70
2019-01-30T05:32:01.382Z,1.80
2019-01-30T05:34:28.167Z,1.70
2019-01-30T05:36:57.479Z,1.70
2019-01-30T05:39:26.852Z,1.70
2019-01-30T05:41:56.197Z,1.70
2019-01-30T05:44:25.566Z,1.70
2019-01-30T05:46:55.508Z,1.70
2019-01-30T05:49:25.538Z,1.70
2019-01-30T05:51:55.013Z,1.70
2019-01-30T05:54:24.527Z,1.70
2019-01-30T05:56:54.857Z,1.70
2019-01-30T05:59:24.296Z,1.70
2019-01-30T06:01:53.597Z,1.60
2019-01-30T06:04:22.982Z,1.50
2019-01-30T06:06:52.295Z,1.50
2019-01-30T06:09:21.631Z,1.50
2019-01-30T06:11:52.658Z,1.50
2019-01-30T06:14:22.033Z,1.40
2019-01-30T06:16:51.330Z,1.40
2019-01-30T06:19:20.929Z,1.40
2019-01-30T06:21:51.142Z,1.50
2019-01-30T06:24:21.759Z,1.50
2019-01-30T06:26:51.079Z,1.60
2019-01-30T06:29:20.443Z,1.50
2019-01-30T06:31:49.935Z,1.60
2019-01-30T06:34:19.259Z,1.60
2019-01-30T06:36:48.604Z,1.60
2019-01-30T06:39:19.066Z,1.60
2019-01-30T06:41:48.670Z,1.70
2019-01-30T06:44:18.555Z,1.80
2019-01-30T06:46:48.586Z,1.70
2019-01-30T06:49:18.051Z,1.90
2019-01-30T06:51:47.975Z,1.80
2019-01-30T06:54:17.975Z,1.80
2019-01-30T06:56:47.290Z,1.80
2019-01-30T06:59:17.166Z,1.80
2019-01-30T07:01:46.539Z,1.80
2019-01-30T07:04:15.966Z,1.80
2019-01-30T07:06:45.257Z,1.90
2019-01-30T07:09:15.331Z,1.90
2019-01-30T07:11:44.819Z,2.00
2019-01-30T07:14:15.246Z,1.90
2019-01-30T07:16:44.583Z,2.10
2019-01-30T07:19:14.001Z,2.20
2019-01-30T07:21:44.002Z,2.20
2019-01-30T07:24:13.913Z,2.20
2019-01-30T07:26:43.599Z,2.20
2019-01-30T07:29:13.627Z,2.20
2019-01-30T07:31:46.882Z,2.30
2019-01-30T07:34:16.790Z,2.40
2019-01-30T07:36:46.708Z,2.40
2019-01-30T07:39:16.310Z,2.40
2019-01-30T07:41:45.755Z,2.40
2019-01-30T07:44:15.135Z,2.30
2019-01-30T07:46:44.505Z,2.40
2019-01-30T07:49:14.454Z,2.40
2019-01-30T07:51:43.887Z,2.40
2019-01-30T07:54:13.351Z,2.30
2019-01-30T07:56:43.459Z,2.30
2019-01-30T07:59:12.903Z,2.30
2019-01-30T08:01:42.788Z,2.40
2019-01-30T08:04:12.453Z,2.40
2019-01-30T08:06:42.774Z,2.40
2019-01-30T08:09:12.131Z,2.50
2019-01-30T08:11:44.139Z,2.50
2019-01-30T08:14:14.038Z,2.30
2019-01-30T08:16:43.967Z,2.50
2019-01-30T08:19:13.858Z,2.50
2019-01-30T08:21:43.310Z,2.60
2019-01-30T08:24:12.739Z,2.50
2019-01-30T08:27:07.471Z,2.50
2019-01-30T08:29:37.639Z,2.60
2019-01-30T08:32:07.652Z,2.60
2019-01-30T08:34:37.734Z,2.70
2019-01-30T08:37:07.585Z,2.60
2019-01-30T08:39:37.459Z,2.70
2019-01-30T08:42:06.809Z,2.70
2019-01-30T08:44:36.119Z,2.80
2019-01-30T08:47:06.076Z,2.80
2019-01-30T08:49:35.857Z,2.80
2019-01-30T08:52:05.205Z,2.80
2019-01-30T08:54:34.653Z,2.80
2019-01-30T08:57:04.597Z,2.80
2019-01-30T08:59:34.555Z,2.90
2019-01-30T09:02:04.670Z,3.00
2019-01-30T09:04:34.652Z,3.00
2019-01-30T09:07:04.597Z,3.10
2019-01-30T09:09:34.970Z,3.10
2019-01-30T09:12:06.651Z,3.10
2019-01-30T09:14:36.561Z,3.00
2019-01-30T09:17:08.680Z,3.10
2019-01-30T09:19:37.383Z,3.10
2019-01-30T09:22:07.255Z,3.20
2019-01-30T09:24:37.242Z,3.20
2019-01-30T09:27:07.996Z,3.20
2019-01-30T09:29:37.895Z,3.10
2019-01-30T09:32:07.416Z,3.10
2019-01-30T09:34:37.291Z,3.10
2019-01-30T09:37:06.814Z,3.20
2019-01-30T09:39:36.691Z,3.20
2019-01-30T09:42:06.032Z,3.30
2019-01-30T09:44:35.348Z,3.40
2019-01-30T09:47:05.249Z,3.40
2019-01-30T09:49:35.129Z,3.50
2019-01-30T09:52:05.065Z,3.60
2019-01-30T09:54:35.076Z,3.70
2019-01-30T09:57:04.358Z,3.90
2019-01-30T09:59:34.229Z,3.80
2019-01-30T10:02:04.412Z,4.00
2019-01-30T10:04:34.390Z,4.20
2019-01-30T10:07:04.261Z,4.10
2019-01-30T10:09:34.202Z,4.10
2019-01-30T10:12:04.359Z,4.00
2019-01-30T10:14:34.339Z,4.10
2019-01-30T10:17:04.495Z,4.10
2019-01-30T10:19:33.794Z,4.30
2019-01-30T10:22:03.799Z,4.20
2019-01-30T10:24:33.681Z,4.30
2019-01-30T10:27:03.587Z,4.30
2019-01-30T10:29:34.343Z,4.50
2019-01-30T10:32:04.278Z,4.40
2019-01-30T10:34:34.167Z,4.30
2019-01-30T10:37:06.022Z,4.50
2019-01-30T10:39:35.913Z,4.40
2019-01-30T10:42:05.811Z,4.40
2019-01-30T10:44:35.723Z,4.30
2019-01-30T10:47:05.612Z,4.20
2019-01-30T10:49:35.536Z,4.30
2019-01-30T10:52:05.419Z,4.30
2019-01-30T10:54:35.288Z,4.40
2019-01-30T10:57:05.188Z,4.50
2019-01-30T10:59:35.151Z,4.50
2019-01-30T11:02:05.076Z,4.40
2019-01-30T11:04:34.959Z,4.40
2019-01-30T11:07:04.868Z,4.50
2019-01-30T11:09:34.802Z,4.60
2019-01-30T11:12:04.705Z,4.80
2019-01-30T11:14:34.587Z,4.80
2019-01-30T11:17:04.544Z,5.00
2019-01-30T11:19:34.500Z,4.90
2019-01-30T11:22:04.388Z,4.80
2019-01-30T11:24:34.525Z,4.70
2019-01-30T11:27:04.434Z,4.70
2019-01-30T11:29:34.403Z,4.50
2019-01-30T11:32:05.247Z,4.70
2019-01-30T11:34:35.251Z,4.60
2019-01-30T11:37:05.169Z,4.60
2019-01-30T11:39:35.247Z,4.70
2019-01-30T11:42:05.287Z,4.80
2019-01-30T11:44:35.281Z,5.00
2019-01-30T11:47:05.307Z,5.00
2019-01-30T11:49:35.235Z,5.10
2019-01-30T11:52:05.356Z,5.10
2019-01-30T11:54:38.791Z,5.00
2019-01-30T11:57:06.806Z,4.90
2019-01-30T11:59:36.720Z,5.10
2019-01-30T12:02:06.643Z,4.80
2019-01-30T12:04:36.570Z,5.00
2019-01-30T12:07:06.467Z,5.00
2019-01-30T12:09:36.448Z,4.90
2019-01-30T12:12:06.331Z,5.00
2019-01-30T12:14:36.456Z,5.00
2019-01-30T12:17:06.338Z,5.10
2019-01-30T12:19:36.292Z,5.40
2019-01-30T12:22:06.414Z,5.50
2019-01-30T12:24:36.400Z,5.30
2019-01-30T12:27:06.386Z,5.30
2019-01-30T12:29:36.278Z,5.40
2019-01-30T12:32:06.138Z,5.70
2019-01-30T12:34:37.103Z,5.70
2019-01-30T12:37:07.247Z,5.60
2019-01-30T12:39:40.503Z,5.60
2019-01-30T12:42:16.579Z,5.40
2019-01-30T12:44:46.524Z,5.40
2019-01-30T12:47:19.945Z,5.10
2019-01-30T12:49:48.518Z,5.00
2019-01-30T12:52:18.503Z,4.80
2019-01-30T12:54:48.457Z,4.90
2019-01-30T12:57:18.343Z,4.60
2019-01-30T12:59:48.336Z,4.40
2019-01-30T13:02:18.423Z,4.40
2019-01-30T13:04:48.386Z,4.30
2019-01-30T13:07:18.679Z,4.40
2019-01-30T13:09:49.019Z,4.40
2019-01-30T13:12:19.442Z,4.40
2019-01-30T13:14:49.791Z,4.30
2019-01-30T13:17:19.823Z,4.30
2019-01-30T13:19:49.771Z,4.30
2019-01-30T13:22:19.984Z,4.20
2019-01-30T13:24:49.934Z,4.10
2019-01-30T13:27:19.928Z,4.10
2019-01-30T13:29:49.920Z,4.10
2019-01-30T13:32:19.818Z,4.00
2019-01-30T13:34:50.583Z,4.00
2019-01-30T13:37:20.567Z,4.00
2019-01-30T13:39:50.444Z,3.90
2019-01-30T13:42:20.376Z,4.00
2019-01-30T13:44:50.313Z,4.00
2019-01-30T13:47:20.195Z,4.10
2019-01-30T13:49:50.279Z,4.10
2019-01-30T13:52:20.151Z,3.80
2019-01-30T13:54:50.183Z,4.00
2019-01-30T13:57:20.099Z,4.00
2019-01-30T13:59:50.056Z,3.90
2019-01-30T14:02:20.200Z,4.00
2019-01-30T14:04:59.297Z,4.00
2019-01-30T14:07:23.693Z,3.90
2019-01-30T14:09:53.688Z,3.70
2019-01-30T14:12:23.675Z,4.00
2019-01-30T14:14:53.684Z,4.00
2019-01-30T14:17:23.706Z,4.00
2019-01-30T14:19:53.659Z,4.00
2019-01-30T14:22:23.702Z,3.90
2019-01-30T14:24:53.657Z,3.90
2019-01-30T14:27:24.660Z,4.00
2019-01-30T14:29:58.269Z,3.90
2019-01-30T14:32:26.298Z,4.10
2019-01-30T14:34:57.363Z,4.00
2019-01-30T14:37:27.417Z,4.20
2019-01-30T14:39:57.567Z,4.10
2019-01-30T14:42:27.606Z,4.20
2019-01-30T14:44:57.748Z,4.30
2019-01-30T14:47:27.698Z,4.20
2019-01-30T14:49:57.052Z,4.10
2019-01-30T14:52:27.002Z,4.80
2019-01-30T14:54:56.287Z,4.10
2019-01-30T14:57:26.208Z,4.00
2019-01-30T14:59:56.225Z,4.00
2019-01-30T15:02:26.124Z,4.00
2019-01-30T15:04:57.249Z,3.90
2019-01-30T15:07:29.147Z,3.80
2019-01-30T15:09:58.658Z,3.70
2019-01-30T15:12:28.521Z,3.50
2019-01-30T15:14:58.630Z,3.40
2019-01-30T15:17:28.517Z,3.20
2019-01-30T15:19:58.414Z,3.00
2019-01-30T15:22:28.503Z,2.90
2019-01-30T15:24:58.370Z,2.80
2019-01-30T15:27:27.814Z,2.60
2019-01-30T15:29:57.700Z,2.50
2019-01-30T15:32:27.612Z,2.40
2019-01-30T15:34:58.050Z,2.30
2019-01-30T15:37:27.576Z,2.20
2019-01-30T15:39:57.469Z,2.00
2019-01-30T15:42:26.855Z,2.00
2019-01-30T15:44:56.272Z,2.00
2019-01-30T15:47:26.217Z,1.90
2019-01-30T15:49:55.515Z,1.80
2019-01-30T15:52:24.991Z,1.80
2019-01-30T15:54:54.402Z,1.70
2019-01-30T15:57:24.786Z,1.70
2019-01-30T15:59:54.803Z,1.60
2019-01-30T16:02:24.191Z,1.60
2019-01-30T16:04:53.801Z,1.50
2019-01-30T16:07:23.481Z,1.40
2019-01-30T16:09:52.858Z,1.40
2019-01-30T16:12:22.344Z,1.30
2019-01-30T16:14:52.268Z,1.30
2019-01-30T16:17:21.645Z,1.30
2019-01-30T16:19:51.052Z,1.10
2019-01-30T16:22:20.434Z,0.90
2019-01-30T16:24:49.732Z,1.10
2019-01-30T16:27:19.072Z,1.10
2019-01-30T16:29:48.635Z,1.20
2019-01-30T16:32:18.022Z,1.20
2019-01-30T16:34:47.530Z,1.40
2019-01-30T16:37:16.855Z,1.40
2019-01-30T16:39:46.279Z,1.40
2019-01-30T16:42:15.842Z,1.40
2019-01-30T16:44:46.759Z,1.40
2019-01-30T16:47:16.114Z,1.40
2019-01-30T16:49:48.427Z,1.50
2019-01-30T16:52:19.446Z,1.60
2019-01-30T16:54:48.751Z,1.70
2019-01-30T16:57:18.111Z,1.80
2019-01-30T16:59:47.470Z,1.90
2019-01-30T17:02:16.964Z,1.90
2019-01-30T17:04:46.372Z,2.00
2019-01-30T17:07:15.685Z,2.00
2019-01-30T17:09:45.644Z,2.00
2019-01-30T17:12:15.009Z,2.10
2019-01-30T17:14:44.898Z,2.20
2019-01-30T17:17:14.774Z,2.20
2019-01-30T17:19:44.225Z,2.20
2019-01-30T17:22:14.792Z,2.20
2019-01-30T17:24:44.693Z,2.20
2019-01-30T17:27:14.080Z,2.30
2019-01-30T17:29:45.115Z,2.30
2019-01-30T17:32:15.040Z,2.40
2019-01-30T17:34:44.464Z,2.30
2019-01-30T17:37:13.737Z,2.40
2019-01-30T17:39:43.762Z,2.40
2019-01-30T17:42:14.030Z,2.40
2019-01-30T17:44:43.960Z,2.40
2019-01-30T17:47:13.331Z,2.40
2019-01-30T17:49:43.296Z,2.50
2019-01-30T17:52:13.482Z,2.50
2019-01-30T17:54:42.858Z,2.50
2019-01-30T17:57:12.843Z,2.50
2019-01-30T17:59:43.060Z,2.50
2019-01-30T18:02:12.500Z,2.50
2019-01-30T18:04:42.638Z,2.50
2019-01-30T18:07:12.616Z,2.50
2019-01-30T18:09:41.922Z,2.50
2019-01-30T18:12:11.828Z,2.50
2019-01-30T18:14:41.707Z,2.60
2019-01-30T18:17:11.678Z,2.60
2019-01-30T18:19:41.156Z,2.50
2019-01-30T18:22:10.574Z,2.50
2019-01-30T18:24:39.932Z,2.50
2019-01-30T18:27:09.878Z,2.50
2019-01-30T18:29:39.171Z,2.60
2019-01-30T18:32:09.213Z,2.60
2019-01-30T18:34:38.534Z,2.60
2019-01-30T18:37:08.506Z,2.60
2019-01-30T18:39:38.379Z,2.60
2019-01-30T18:42:08.356Z,2.70
2019-01-30T18:44:38.578Z,2.70
2019-01-30T18:47:08.010Z,2.70
2019-01-30T18:49:37.894Z,2.70
2019-01-30T18:52:07.265Z,2.70
2019-01-30T18:54:36.724Z,2.70
2019-01-30T18:57:06.571Z,2.70
2019-01-30T18:59:36.534Z,2.70
2019-01-30T19:02:06.439Z,2.70
2019-01-30T19:04:36.409Z,2.80
2019-01-30T19:07:05.745Z,2.80
2019-01-30T19:09:35.043Z,2.70
2019-01-30T19:12:05.101Z,2.70
2019-01-30T19:14:34.435Z,2.80
2019-01-30T19:17:03.744Z,2.80
2019-01-30T19:19:33.103Z,2.80
2019-01-30T19:22:03.016Z,2.70
2019-01-30T19:24:32.890Z,2.80
2019-01-30T19:27:02.195Z,2.80
2019-01-30T19:29:32.166Z,2.60
2019-01-30T19:32:02.051Z,2.70
2019-01-30T19:34:31.944Z,2.80
2019-01-30T19:37:03.550Z,2.80
2019-01-30T19:39:33.342Z,2.80
2019-01-30T19:42:03.370Z,2.80
2019-01-30T19:44:33.355Z,2.80
2019-01-30T19:47:04.280Z,2.80
2019-01-30T19:49:36.615Z,2.80
2019-01-30T19:52:05.949Z,2.80
2019-01-30T19:54:39.234Z,2.80
2019-01-30T19:57:09.247Z,2.90
2019-01-30T19:59:38.628Z,2.80
2019-01-30T20:02:08.586Z,2.80
2019-01-30T20:04:38.492Z,2.80
2019-01-30T20:07:14.406Z,2.80
2019-01-30T20:09:39.482Z,2.80
2019-01-30T20:12:09.664Z,2.80
2019-01-30T20:14:39.635Z,2.80
2019-01-30T20:17:10.027Z,2.80
2019-01-30T20:19:40.012Z,2.80
2019-01-30T20:22:09.494Z,2.80
2019-01-30T20:24:39.679Z,2.80
2019-01-30T20:27:09.675Z,2.80
2019-01-30T20:29:39.629Z,2.80
2019-01-30T20:32:09.527Z,2.80
2019-01-30T20:34:39.596Z,2.80
2019-01-30T20:37:08.875Z,2.80
2019-01-30T20:39:38.820Z,2.80
2019-01-30T20:42:08.758Z,2.80
2019-01-30T20:44:38.747Z,2.80
2019-01-30T20:47:08.909Z,2.80
2019-01-30T20:49:38.260Z,2.80
2019-01-30T20:52:07.593Z,2.70
2019-01-30T20:54:36.992Z,2.80
2019-01-30T20:57:06.411Z,2.80
2019-01-30T20:59:36.298Z,2.80
2019-01-30T21:02:06.212Z,2.80
2019-01-30T21:04:35.615Z,2.90
2019-01-30T21:07:05.514Z,2.90
2019-01-30T21:09:35.464Z,2.90
2019-01-30T21:12:05.446Z,2.90
2019-01-30T21:14:35.500Z,2.90
2019-01-30T21:17:05.004Z,2.80
2019-01-30T21:19:34.884Z,2.80
2019-01-30T21:22:04.920Z,2.80
2019-01-30T21:24:35.151Z,2.80
2019-01-30T21:27:04.453Z,2.80
2019-01-30T21:29:34.421Z,2.80
2019-01-30T21:32:03.758Z,2.80
2019-01-30T21:34:33.646Z,2.80
2019-01-30T21:37:03.531Z,2.80
2019-01-30T21:39:33.050Z,2.80
2019-01-30T21:42:03.338Z,2.80
2019-01-30T21:44:33.281Z,2.80
2019-01-30T21:47:03.175Z,2.70
2019-01-30T21:49:32.567Z,2.80
2019-01-30T21:52:02.548Z,2.70
2019-01-30T21:54:32.564Z,2.80
2019-01-30T21:57:02.186Z,2.70
2019-01-30T21:59:32.265Z,2.70
2019-01-30T22:02:08.383Z,2.80
2019-01-30T22:04:32.702Z,2.70
2019-01-30T22:07:01.993Z,2.80
2019-01-30T22:09:31.896Z,2.70
2019-01-30T22:12:01.922Z,2.70
2019-01-30T22:14:32.034Z,2.60
2019-01-30T22:17:01.919Z,2.70
2019-01-30T22:19:32.568Z,2.80
2019-01-30T22:22:02.676Z,2.70
2019-01-30T22:24:32.087Z,2.60
2019-01-30T22:27:02.015Z,2.60
2019-01-30T22:29:31.330Z,2.60
2019-01-30T22:32:00.748Z,2.60
2019-01-30T22:34:30.219Z,2.70
2019-01-30T22:37:00.112Z,2.70
2019-01-30T22:39:30.119Z,2.70
2019-01-30T22:42:02.316Z,2.60
2019-01-30T22:44:30.491Z,2.60
2019-01-30T22:47:00.429Z,2.70
2019-01-30T22:49:30.288Z,2.70
2019-01-30T22:51:59.632Z,2.60
2019-01-30T22:54:29.226Z,2.70
2019-01-30T22:56:58.715Z,2.60
2019-01-30T22:59:28.603Z,2.60
2019-01-30T23:01:58.767Z,2.60
2019-01-30T23:04:37.132Z,2.60
2019-01-30T23:07:09.864Z,2.60
2019-01-30T23:10:15.573Z,2.70
2019-01-30T23:13:08.077Z,2.70
2019-01-30T23:15:46.695Z,2.70
2019-01-30T23:18:31.925Z,2.60
2019-01-30T23:21:16.575Z,2.60
2019-01-30T23:24:21.711Z,2.60
2019-01-30T23:27:00.788Z,2.60
2019-01-30T23:29:50.028Z,2.60
2019-01-30T23:32:32.192Z,2.60
2019-01-30T23:35:38.357Z,2.70
2019-01-30T23:38:21.628Z,2.70
2019-01-30T23:40:57.774Z,2.70
2019-01-30T23:43:42.488Z,2.70
2019-01-30T23:46:27.289Z,2.70
2019-01-30T23:49:19.115Z,2.80
2019-01-30T23:51:52.138Z,2.80
2019-01-30T23:54:40.052Z,2.80
2019-01-30T23:57:17.464Z,2.80
